createdAt,value
2023-03-12T00:02:04.507Z,94.70
2023-03-12T00:04:31.777Z,94.20
2023-03-12T00:06:58.923Z,93.70
2023-03-12T00:09:26.145Z,93.40
2023-03-12T00:11:53.322Z,93.90
2023-03-12T00:14:20.683Z,93.90
2023-03-12T00:16:47.848Z,94.00
2023-03-12T00:19:15.065Z,93.20
2023-03-12T00:21:42.249Z,93.20
2023-03-12T00:24:09.528Z,93.30
2023-03-12T00:26:36.692Z,93.90
2023-03-12T00:29:03.923Z,93.50
2023-03-12T00:31:32.938Z,93.50
2023-03-12T00:34:01.126Z,93.60
2023-03-12T00:36:29.659Z,93.80
2023-03-12T00:38:57.758Z,93.90
2023-03-12T00:41:25.475Z,93.90
2023-03-12T00:43:53.117Z,94.10
2023-03-12T00:46:20.490Z,94.20
2023-03-12T00:48:47.785Z,94.40
2023-03-12T00:51:15.383Z,94.60
2023-03-12T00:53:42.613Z,95.00
2023-03-12T00:56:10.116Z,95.20
2023-03-12T00:58:37.388Z,95.40
2023-03-12T01:01:05.169Z,95.70
2023-03-12T01:03:32.536Z,95.80
2023-03-12T01:05:59.807Z,95.90
2023-03-12T01:08:27.228Z,96.10
2023-03-12T01:10:54.566Z,96.30
2023-03-12T01:13:21.993Z,96.40
2023-03-12T01:15:49.446Z,96.70
2023-03-12T01:18:16.707Z,96.80
2023-03-12T01:20:43.963Z,96.90
2023-03-12T01:23:11.380Z,96.90
2023-03-12T01:25:38.633Z,97.10
2023-03-12T01:28:05.982Z,97.40
2023-03-12T01:30:33.270Z,97.50
2023-03-12T01:33:00.567Z,97.60
2023-03-12T01:35:27.907Z,97.80
2023-03-12T01:38:00.825Z,98.10
2023-03-12T01:40:29.258Z,98.20
2023-03-12T01:42:58.367Z,98.40
2023-03-12T01:45:44.439Z,99.00
2023-03-12T01:48:11.746Z,98.70
2023-03-12T01:50:38.994Z,98.90
2023-03-12T01:53:06.326Z,99.00
2023-03-12T01:55:33.847Z,99.00
2023-03-12T01:58:01.547Z,99.20
2023-03-12T02:00:28.978Z,99.00
2023-03-12T02:02:59.964Z,98.90
2023-03-12T02:05:33.251Z,99.20
2023-03-12T02:08:00.707Z,98.90
2023-03-12T02:10:27.991Z,98.60
2023-03-12T02:12:55.277Z,98.50
2023-03-12T02:15:23.587Z,98.50
2023-03-12T02:17:50.972Z,98.30
2023-03-12T02:20:21.450Z,98.30
2023-03-12T02:22:55.783Z,98.10
2023-03-12T02:25:23.073Z,98.20
2023-03-12T02:27:57.954Z,97.90
2023-03-12T02:30:29.977Z,98.10
2023-03-12T02:32:59.654Z,98.10
2023-03-12T02:35:27.061Z,98.10
2023-03-12T02:37:55.441Z,98.20
2023-03-12T02:40:33.976Z,98.20
2023-03-12T02:43:02.563Z,98.30
2023-03-12T02:45:29.948Z,98.40
2023-03-12T02:47:57.357Z,98.40
2023-03-12T02:50:24.635Z,98.40
2023-03-12T02:52:51.828Z,98.30
2023-03-12T02:55:19.313Z,98.50
2023-03-12T02:57:46.598Z,98.70
2023-03-12T03:00:16.701Z,98.70
2023-03-12T03:02:48.544Z,98.60
2023-03-12T03:05:16.262Z,98.60
2023-03-12T03:07:43.473Z,98.30
2023-03-12T03:10:11.122Z,98.10
2023-03-12T03:12:38.437Z,98.10
2023-03-12T03:15:07.091Z,97.90
2023-03-12T03:17:34.377Z,98.10
2023-03-12T03:20:01.610Z,97.70
2023-03-12T03:22:28.811Z,97.50
2023-03-12T03:24:56.043Z,97.30
2023-03-12T03:27:23.309Z,97.00
2023-03-12T03:29:50.841Z,96.70
2023-03-12T03:32:18.062Z,96.50
2023-03-12T03:34:45.582Z,96.10
2023-03-12T03:37:12.945Z,95.80
2023-03-12T03:39:40.364Z,95.60
2023-03-12T03:42:07.919Z,95.40
2023-03-12T03:44:35.642Z,95.30
2023-03-12T03:47:03.088Z,95.20
2023-03-12T03:49:30.297Z,95.20
2023-03-12T03:51:57.581Z,95.00
2023-03-12T03:54:31.238Z,94.90
2023-03-12T03:56:59.087Z,94.90
2023-03-12T03:59:26.710Z,95.00
2023-03-12T04:01:54.129Z,94.90
2023-03-12T04:04:21.594Z,94.80
2023-03-12T04:06:49.061Z,94.90
2023-03-12T04:09:16.800Z,94.90
2023-03-12T04:11:44.164Z,95.00
2023-03-12T04:14:13.476Z,94.90
2023-03-12T04:16:44.298Z,95.00
2023-03-12T04:19:12.229Z,94.90
2023-03-12T04:21:39.778Z,95.10
2023-03-12T04:24:08.368Z,95.20
2023-03-12T04:26:36.146Z,95.00
2023-03-12T04:29:05.569Z,95.00
2023-03-12T04:31:33.001Z,95.10
2023-03-12T04:34:00.480Z,95.20
2023-03-12T04:36:27.953Z,95.00
2023-03-12T04:38:56.268Z,95.00
2023-03-12T04:41:28.024Z,95.30
2023-03-12T04:44:02.241Z,95.20
2023-03-12T04:46:30.185Z,95.40
2023-03-12T04:48:58.213Z,95.40
2023-03-12T04:51:25.467Z,95.30
2023-03-12T04:53:52.760Z,95.70
2023-03-12T04:56:20.011Z,95.40
2023-03-12T04:59:08.084Z,95.60
2023-03-12T05:01:36.273Z,95.60
2023-03-12T05:04:08.160Z,95.70
2023-03-12T05:06:35.650Z,95.60
2023-03-12T05:09:03.864Z,95.80
2023-03-12T05:11:31.202Z,95.70
2023-03-12T05:13:58.803Z,96.10
2023-03-12T05:16:26.008Z,95.70
2023-03-12T05:18:53.482Z,95.90
2023-03-12T05:21:22.702Z,95.90
2023-03-12T05:23:53.360Z,95.70
2023-03-12T05:26:22.617Z,95.70
2023-03-12T05:28:51.516Z,95.90
2023-03-12T05:31:20.553Z,96.00
2023-03-12T05:33:49.040Z,96.10
2023-03-12T05:36:17.570Z,96.30
2023-03-12T05:38:46.592Z,96.40
2023-03-12T05:41:23.773Z,96.10
2023-03-12T05:43:54.047Z,96.40
2023-03-12T05:46:21.384Z,96.20
2023-03-12T05:48:48.813Z,96.30
2023-03-12T05:51:16.885Z,96.40
2023-03-12T05:53:44.253Z,96.50
2023-03-12T05:56:12.896Z,96.60
2023-03-12T05:58:40.485Z,96.50
2023-03-12T06:01:18.572Z,96.50
2023-03-12T06:03:45.977Z,96.50
2023-03-12T06:06:13.433Z,96.60
2023-03-12T06:08:42.128Z,96.50
2023-03-12T06:11:11.154Z,96.40
2023-03-12T06:13:38.518Z,96.30
2023-03-12T06:16:07.092Z,96.30
2023-03-12T06:18:35.715Z,95.90
2023-03-12T06:21:09.437Z,96.10
2023-03-12T06:23:36.930Z,96.00
2023-03-12T06:26:04.587Z,95.90
2023-03-12T06:28:32.239Z,95.70
2023-03-12T06:30:59.463Z,95.50
2023-03-12T06:33:26.662Z,95.60
2023-03-12T06:35:57.392Z,94.20
2023-03-12T06:38:25.023Z,93.60
2023-03-12T06:41:02.218Z,93.40
2023-03-12T06:43:30.358Z,93.00
2023-03-12T06:45:58.356Z,93.40
2023-03-12T06:48:26.030Z,92.70
2023-03-12T06:50:53.259Z,91.60
2023-03-12T06:53:21.028Z,92.50
2023-03-12T06:55:49.593Z,92.40
2023-03-12T06:58:17.027Z,92.30
2023-03-12T07:00:44.394Z,92.50
2023-03-12T07:03:11.608Z,92.40
2023-03-12T07:05:38.750Z,92.50
2023-03-12T07:08:06.149Z,92.40
2023-03-12T07:10:33.481Z,92.20
2023-03-12T07:13:00.710Z,92.20
2023-03-12T07:15:27.892Z,93.00
2023-03-12T07:17:55.081Z,93.30
2023-03-12T07:20:22.330Z,93.10
2023-03-12T07:22:50.300Z,93.60
2023-03-12T07:25:19.062Z,94.00
2023-03-12T07:27:46.373Z,93.70
2023-03-12T07:30:13.697Z,93.60
2023-03-12T07:32:41.192Z,93.40
2023-03-12T07:35:08.593Z,93.30
2023-03-12T07:37:35.817Z,92.90
2023-03-12T07:40:07.312Z,92.90
2023-03-12T07:42:34.652Z,92.90
2023-03-12T07:45:01.982Z,92.60
2023-03-12T07:47:29.404Z,92.70
2023-03-12T07:49:56.786Z,92.80
2023-03-12T07:52:24.138Z,92.80
2023-03-12T07:54:52.864Z,93.00
2023-03-12T07:57:20.273Z,92.60
2023-03-12T07:59:48.235Z,92.60
2023-03-12T08:02:15.613Z,92.40
2023-03-12T08:04:42.936Z,92.70
2023-03-12T08:07:10.195Z,92.30
2023-03-12T08:09:38.779Z,92.10
2023-03-12T08:12:07.064Z,92.10
2023-03-12T08:14:34.907Z,91.60
2023-03-12T08:17:02.548Z,91.70
2023-03-12T08:19:29.818Z,91.80
2023-03-12T08:21:58.106Z,91.90
2023-03-12T08:24:25.337Z,91.80
2023-03-12T08:26:52.594Z,91.50
2023-03-12T08:29:20.447Z,91.30
2023-03-12T08:32:03.489Z,91.20
2023-03-12T08:34:31.654Z,91.40
2023-03-12T08:36:58.796Z,91.60
2023-03-12T08:39:26.126Z,90.60
2023-03-12T08:41:55.506Z,90.60
2023-03-12T08:44:23.452Z,90.70
2023-03-12T08:46:51.518Z,90.90
2023-03-12T08:49:19.304Z,90.90
2023-03-12T08:51:46.526Z,90.70
2023-03-12T08:54:13.738Z,90.40
2023-03-12T08:56:43.792Z,90.80
2023-03-12T08:59:11.854Z,90.50
2023-03-12T09:01:41.792Z,90.90
2023-03-12T09:04:10.888Z,91.30
2023-03-12T09:06:38.600Z,89.70
2023-03-12T09:09:05.982Z,89.40
2023-03-12T09:11:33.818Z,90.00
2023-03-12T09:14:49.927Z,89.80
2023-03-12T09:16:49.175Z,89.40
2023-03-12T09:19:16.435Z,90.10
2023-03-12T09:21:43.725Z,88.50
2023-03-12T09:24:11.341Z,88.90
2023-03-12T09:26:38.532Z,87.80
2023-03-12T09:29:05.779Z,87.90
2023-03-12T09:31:34.164Z,87.60
2023-03-12T09:34:01.369Z,87.30
2023-03-12T09:36:28.537Z,87.10
2023-03-12T09:38:55.869Z,85.30
2023-03-12T09:41:24.403Z,84.20
2023-03-12T09:43:54.028Z,84.00
2023-03-12T09:46:24.414Z,86.00
2023-03-12T09:48:53.202Z,82.70
2023-03-12T09:51:22.255Z,81.90
2023-03-12T09:53:54.113Z,82.50
2023-03-12T09:56:22.066Z,82.00
2023-03-12T09:58:50.674Z,82.10
2023-03-12T10:01:29.855Z,81.70
2023-03-12T10:04:09.353Z,81.70
2023-03-12T10:06:39.954Z,80.40
2023-03-12T10:09:07.256Z,81.50
2023-03-12T10:11:53.121Z,81.80
2023-03-12T10:14:29.515Z,82.50
2023-03-12T10:17:17.004Z,81.50
2023-03-12T10:19:44.682Z,81.40
2023-03-12T10:22:11.964Z,83.20
2023-03-12T10:24:42.340Z,82.60
2023-03-12T10:27:12.469Z,82.20
2023-03-12T10:29:44.547Z,81.80
2023-03-12T10:32:17.626Z,82.20
2023-03-12T10:34:48.013Z,82.90
2023-03-12T10:37:23.781Z,82.50
2023-03-12T10:39:51.629Z,82.30
2023-03-12T10:42:24.027Z,83.00
2023-03-12T10:44:52.267Z,82.20
2023-03-12T10:47:31.640Z,83.70
2023-03-12T10:50:17.233Z,85.10
2023-03-12T10:52:45.207Z,82.90
2023-03-12T10:55:19.567Z,83.20
2023-03-12T10:57:47.007Z,83.70
2023-03-12T11:00:32.605Z,82.90
2023-03-12T11:03:04.406Z,84.10
2023-03-12T11:05:36.144Z,83.50
2023-03-12T11:08:04.416Z,82.40
2023-03-12T11:10:43.128Z,84.20
2023-03-12T11:13:24.497Z,84.50
2023-03-12T11:15:52.932Z,82.80
2023-03-12T11:18:46.287Z,82.90
2023-03-12T11:21:15.618Z,82.40
2023-03-12T11:23:44.537Z,82.00
2023-03-12T11:26:19.407Z,81.50
2023-03-12T11:28:47.714Z,81.30
2023-03-12T11:31:35.160Z,80.60
2023-03-12T11:34:05.418Z,81.40
2023-03-12T11:36:35.559Z,81.90
2023-03-12T11:39:02.823Z,83.90
2023-03-12T11:41:29.994Z,84.50
2023-03-12T11:44:27.302Z,82.90
2023-03-12T11:47:06.501Z,84.60
2023-03-12T11:49:47.356Z,82.00
2023-03-12T11:52:25.347Z,81.60
2023-03-12T11:55:10.956Z,82.40
2023-03-12T11:57:47.742Z,82.10
2023-03-12T12:00:17.336Z,83.20
2023-03-12T12:02:47.614Z,83.00
2023-03-12T12:05:20.609Z,82.50
2023-03-12T12:07:47.776Z,84.60
2023-03-12T12:10:29.432Z,83.20
2023-03-12T12:13:03.169Z,84.30
2023-03-12T12:15:49.151Z,84.00
2023-03-12T12:18:35.992Z,84.00
2023-03-12T12:21:08.920Z,84.90
2023-03-12T12:23:36.220Z,84.40
2023-03-12T12:26:05.578Z,83.80
2023-03-12T12:28:44.353Z,85.50
2023-03-12T12:31:26.542Z,85.00
2023-03-12T12:33:56.612Z,83.70
2023-03-12T12:36:26.490Z,85.60
2023-03-12T12:38:56.146Z,85.20
2023-03-12T12:41:23.573Z,85.80
2023-03-12T12:43:53.047Z,84.40
2023-03-12T12:46:22.559Z,84.00
2023-03-12T12:48:55.643Z,86.30
2023-03-12T12:51:29.141Z,84.90
2023-03-12T12:54:00.742Z,86.10
2023-03-12T12:56:50.385Z,86.50
2023-03-12T12:59:21.448Z,84.70
2023-03-12T13:01:50.231Z,84.60
2023-03-12T13:04:33.467Z,87.00
2023-03-12T13:07:02.685Z,86.50
2023-03-12T13:09:56.050Z,84.10
2023-03-12T13:12:34.867Z,86.50
2023-03-12T13:15:02.877Z,85.30
2023-03-12T13:17:30.173Z,86.00
2023-03-12T13:20:17.307Z,86.80
2023-03-12T13:23:03.416Z,83.90
2023-03-12T13:25:33.255Z,84.00
2023-03-12T13:28:02.314Z,84.00
2023-03-12T13:30:35.428Z,83.50
2023-03-12T13:33:06.270Z,87.10
2023-03-12T13:35:37.645Z,84.00
2023-03-12T13:38:06.712Z,84.00
2023-03-12T13:40:52.615Z,84.70
2023-03-12T13:43:38.132Z,84.00
2023-03-12T13:46:20.641Z,84.10
2023-03-12T13:48:49.029Z,86.00
2023-03-12T13:51:20.599Z,85.10
2023-03-12T13:53:49.902Z,82.90
2023-03-12T13:56:18.350Z,82.90
2023-03-12T13:58:50.292Z,85.00
2023-03-12T14:01:19.557Z,82.80
2023-03-12T14:03:49.814Z,85.20
2023-03-12T14:06:21.345Z,83.90
2023-03-12T14:09:12.822Z,85.00
2023-03-12T14:11:58.073Z,85.70
2023-03-12T14:14:32.459Z,85.90
2023-03-12T14:17:04.823Z,84.70
2023-03-12T14:19:33.847Z,85.40
2023-03-12T14:22:02.990Z,85.00
2023-03-12T14:24:35.284Z,85.10
2023-03-12T14:27:04.674Z,85.30
2023-03-12T14:29:36.524Z,85.90
2023-03-12T14:32:05.392Z,84.80
2023-03-12T14:34:39.063Z,86.20
2023-03-12T14:37:14.694Z,87.40
2023-03-12T14:39:43.857Z,87.60
2023-03-12T14:42:18.882Z,88.20
2023-03-12T14:44:53.847Z,86.90
2023-03-12T14:47:21.147Z,85.80
2023-03-12T14:49:48.425Z,86.00
2023-03-12T14:52:23.341Z,85.30
2023-03-12T14:54:58.666Z,87.70
2023-03-12T14:57:25.990Z,86.60
2023-03-12T15:00:35.289Z,86.70
2023-03-12T15:02:51.177Z,87.50
2023-03-12T15:05:19.247Z,87.40
2023-03-12T15:07:46.675Z,86.80
2023-03-12T15:10:18.362Z,88.00
2023-03-12T15:12:46.049Z,86.80
2023-03-12T15:15:36.695Z,87.20
2023-03-12T15:18:05.254Z,88.00
2023-03-12T15:20:32.557Z,87.90
2023-03-12T15:23:01.547Z,88.30
2023-03-12T15:25:31.751Z,88.70
2023-03-12T15:28:03.825Z,88.30
2023-03-12T15:30:31.363Z,89.00
2023-03-12T15:33:10.820Z,88.30
2023-03-12T15:35:40.157Z,87.90
2023-03-12T15:38:14.537Z,87.90
2023-03-12T15:40:42.222Z,87.70
2023-03-12T15:43:15.785Z,87.80
2023-03-12T15:45:43.135Z,87.70
2023-03-12T15:48:26.552Z,88.70
2023-03-12T15:50:53.837Z,89.00
2023-03-12T15:53:23.022Z,88.60
2023-03-12T15:55:59.245Z,90.10
2023-03-12T15:58:36.645Z,89.70
2023-03-12T16:01:08.844Z,89.70
2023-03-12T16:03:36.384Z,90.20
2023-03-12T16:06:03.917Z,90.20
2023-03-12T16:08:43.736Z,90.40
2023-03-12T16:11:16.572Z,90.30
2023-03-12T16:13:44.998Z,90.30
2023-03-12T16:16:13.140Z,90.50
2023-03-12T16:18:41.239Z,90.00
2023-03-12T16:21:08.765Z,89.80
2023-03-12T16:23:35.993Z,90.00
2023-03-12T16:26:04.927Z,89.60
2023-03-12T16:28:33.715Z,90.90
2023-03-12T16:31:00.955Z,91.20
2023-03-12T16:33:28.331Z,91.00
2023-03-12T16:35:55.973Z,91.10
2023-03-12T16:38:23.316Z,90.90
2023-03-12T16:40:51.792Z,90.90
2023-03-12T16:43:23.498Z,91.20
2023-03-12T16:45:51.927Z,91.30
2023-03-12T16:48:20.931Z,91.60
2023-03-12T16:50:52.473Z,91.80
2023-03-12T16:53:19.833Z,92.10
2023-03-12T16:55:49.926Z,92.00
2023-03-12T16:58:18.435Z,92.10
2023-03-12T17:00:46.158Z,92.30
2023-03-12T17:03:18.323Z,92.30
2023-03-12T17:05:45.599Z,92.60
2023-03-12T17:08:14.089Z,92.10
2023-03-12T17:10:41.400Z,92.30
2023-03-12T17:13:15.978Z,92.50
2023-03-12T17:15:43.290Z,92.50
2023-03-12T17:18:11.171Z,92.60
2023-03-12T17:20:38.538Z,92.80
2023-03-12T17:23:06.469Z,93.00
2023-03-12T17:25:34.474Z,93.40
2023-03-12T17:28:01.724Z,93.30
2023-03-12T17:30:30.243Z,93.20
2023-03-12T17:33:01.491Z,93.20
2023-03-12T17:35:28.864Z,93.50
2023-03-12T17:37:56.044Z,93.20
2023-03-12T17:40:23.285Z,93.50
2023-03-12T17:42:50.545Z,93.40
2023-03-12T17:45:17.741Z,93.70
2023-03-12T17:47:44.985Z,93.70
2023-03-12T17:50:12.982Z,94.30
2023-03-12T17:52:40.287Z,93.90
2023-03-12T17:55:09.931Z,94.00
2023-03-12T17:57:38.966Z,94.20
2023-03-12T18:00:13.184Z,94.40
2023-03-12T18:02:41.198Z,94.40
2023-03-12T18:05:09.128Z,94.30
2023-03-12T18:07:36.728Z,94.20
2023-03-12T18:10:05.714Z,94.50
2023-03-12T18:12:33.098Z,94.60
2023-03-12T18:15:00.683Z,94.70
2023-03-12T18:17:27.893Z,94.70
2023-03-12T18:19:55.086Z,94.90
2023-03-12T18:22:23.180Z,95.10
2023-03-12T18:24:50.501Z,95.10
2023-03-12T18:27:17.683Z,95.10
2023-03-12T18:29:44.886Z,95.10
2023-03-12T18:32:12.038Z,95.00
2023-03-12T18:34:42.189Z,95.00
2023-03-12T18:37:09.474Z,95.10
2023-03-12T18:39:36.701Z,94.90
2023-03-12T18:42:04.016Z,95.00
2023-03-12T18:44:31.302Z,95.20
2023-03-12T18:46:58.573Z,95.30
2023-03-12T18:49:25.920Z,95.40
2023-03-12T18:51:56.024Z,95.40
2023-03-12T18:54:24.810Z,95.50
2023-03-12T18:56:52.220Z,95.70
2023-03-12T18:59:19.498Z,95.60
2023-03-12T19:01:46.836Z,95.70
2023-03-12T19:04:18.183Z,95.90
2023-03-12T19:06:51.070Z,95.90
2023-03-12T19:09:19.287Z,95.90
2023-03-12T19:11:47.669Z,95.80
2023-03-12T19:14:14.980Z,95.80
2023-03-12T19:16:42.814Z,95.70
2023-03-12T19:19:10.114Z,95.80
2023-03-12T19:21:37.713Z,96.00
2023-03-12T19:24:07.269Z,95.90
2023-03-12T19:26:34.582Z,95.90
2023-03-12T19:29:04.015Z,95.70
2023-03-12T19:31:31.503Z,95.60
2023-03-12T19:33:58.717Z,95.70
2023-03-12T19:36:25.896Z,95.60
2023-03-12T19:38:53.090Z,95.70
2023-03-12T19:41:20.297Z,95.80
2023-03-12T19:43:47.557Z,95.80
2023-03-12T19:46:14.809Z,95.70
2023-03-12T19:48:42.026Z,95.70
2023-03-12T19:51:10.227Z,95.50
2023-03-12T19:53:37.784Z,95.50
2023-03-12T19:56:08.093Z,95.30
2023-03-12T19:58:35.306Z,95.30
2023-03-12T20:01:03.055Z,95.20
2023-03-12T20:03:31.779Z,95.40
2023-03-12T20:05:59.331Z,95.50
2023-03-12T20:08:32.392Z,95.60
2023-03-12T20:11:03.553Z,95.60
2023-03-12T20:13:31.006Z,95.60
2023-03-12T20:15:58.324Z,95.50
2023-03-12T20:18:25.582Z,95.40
2023-03-12T20:20:52.808Z,95.40
2023-03-12T20:23:20.039Z,95.50
2023-03-12T20:25:50.726Z,95.00
2023-03-12T20:28:17.889Z,95.40
2023-03-12T20:30:45.199Z,95.60
2023-03-12T20:33:12.501Z,95.90
2023-03-12T20:35:39.720Z,96.00
2023-03-12T20:38:07.085Z,96.00
2023-03-12T20:40:34.452Z,96.00
2023-03-12T20:43:05.092Z,96.30
2023-03-12T20:45:33.131Z,96.60
2023-03-12T20:48:00.626Z,96.60
2023-03-12T20:50:28.226Z,96.40
2023-03-12T20:52:55.454Z,96.40
2023-03-12T20:55:22.796Z,96.20
2023-03-12T20:57:49.963Z,96.50
2023-03-12T21:00:17.448Z,96.60
2023-03-12T21:02:44.784Z,96.80
2023-03-12T21:05:13.663Z,96.70
2023-03-12T21:07:41.187Z,96.70
2023-03-12T21:10:08.909Z,96.80
2023-03-12T21:12:36.210Z,97.00
2023-03-12T21:15:07.003Z,97.00
2023-03-12T21:17:34.724Z,97.00
2023-03-12T21:20:02.576Z,97.10
2023-03-12T21:22:31.276Z,97.20
2023-03-12T21:24:58.648Z,98.00
2023-03-12T21:27:26.072Z,97.50
2023-03-12T21:29:53.856Z,98.20
2023-03-12T21:32:21.960Z,98.20
2023-03-12T21:34:49.399Z,97.60
2023-03-12T21:37:16.672Z,97.50
2023-03-12T21:39:43.938Z,98.50
2023-03-12T21:42:11.124Z,99.20
2023-03-12T21:44:38.314Z,99.90
2023-03-12T21:47:05.712Z,99.90
2023-03-12T21:49:33.896Z,99.90
2023-03-12T21:52:02.034Z,99.30
2023-03-12T21:54:32.899Z,99.10
2023-03-12T21:57:02.672Z,98.00
2023-03-12T21:59:30.789Z,97.50
2023-03-12T22:01:58.642Z,97.30
2023-03-12T22:04:25.972Z,97.30
2023-03-12T22:06:53.184Z,97.00
2023-03-12T22:09:20.410Z,96.80
2023-03-12T22:11:47.686Z,96.90
2023-03-12T22:14:14.951Z,97.00
2023-03-12T22:16:42.224Z,96.80
2023-03-12T22:19:09.539Z,96.80
2023-03-12T22:21:36.836Z,96.70
2023-03-12T22:24:04.344Z,97.40
2023-03-12T22:26:31.575Z,97.20
2023-03-12T22:28:58.807Z,98.80
2023-03-12T22:31:26.975Z,99.50
2023-03-12T22:33:54.303Z,99.90
2023-03-12T22:36:21.928Z,99.90
2023-03-12T22:38:49.357Z,99.90
2023-03-12T22:41:24.329Z,99.90
2023-03-12T22:43:53.011Z,99.90
2023-03-12T22:46:21.293Z,99.90
2023-03-12T22:48:52.117Z,99.90
2023-03-12T22:51:26.720Z,99.90
2023-03-12T22:53:54.097Z,99.90
2023-03-12T22:56:21.880Z,99.90
2023-03-12T22:58:49.448Z,99.90
2023-03-12T23:01:18.336Z,99.90
2023-03-12T23:03:46.178Z,99.90
2023-03-12T23:06:17.561Z,99.90
2023-03-12T23:08:47.074Z,99.90
2023-03-12T23:11:15.500Z,99.90
2023-03-12T23:13:44.544Z,99.90
2023-03-12T23:16:13.340Z,99.90
2023-03-12T23:18:40.820Z,99.70
2023-03-12T23:21:09.046Z,99.90
2023-03-12T23:23:39.459Z,99.90
2023-03-12T23:26:06.744Z,99.90
2023-03-12T23:28:33.930Z,99.90
2023-03-12T23:31:14.329Z,99.90
2023-03-12T23:33:41.619Z,99.90
2023-03-12T23:36:10.873Z,99.90
2023-03-12T23:38:38.345Z,99.90
2023-03-12T23:41:07.124Z,99.90
2023-03-12T23:43:34.669Z,99.90
2023-03-12T23:46:02.639Z,99.90
2023-03-12T23:48:30.471Z,99.90
2023-03-12T23:51:07.698Z,99.90
2023-03-12T23:53:35.459Z,99.90
2023-03-12T23:56:03.627Z,99.90
2023-03-12T23:58:31.024Z,99.90
